sensor_id;sensor_type;location;lat;lon;timestamp;pressure;altitude;pressure_sealevel;temperature;humidity
37792;BME280;29527;55.766;37.570;2023-03-31T00:00:25;99187.94;;;1.93;59.89
37792;BME280;29527;55.766;37.570;2023-03-31T00:02:50;99174.63;;;1.96;60.36
37792;BME280;29527;55.766;37.570;2023-03-31T00:05:18;99181.91;;;1.91;60.03
37792;BME280;29527;55.766;37.570;2023-03-31T00:07:46;99187.72;;;1.81;60.17
37792;BME280;29527;55.766;37.570;2023-03-31T00:10:13;99185.41;;;1.75;60.70
37792;BME280;29527;55.766;37.570;2023-03-31T00:12:38;99179.38;;;1.73;60.87
37792;BME280;29527;55.766;37.570;2023-03-31T00:15:04;99180.31;;;1.72;60.71
37792;BME280;29527;55.766;37.570;2023-03-31T00:17:30;99176.78;;;1.71;61.13
37792;BME280;29527;55.766;37.570;2023-03-31T00:19:58;99152.69;;;1.62;60.78
37792;BME280;29527;55.766;37.570;2023-03-31T00:22:26;99179.63;;;1.84;60.77
37792;BME280;29527;55.766;37.570;2023-03-31T00:24:52;99172.47;;;1.86;60.64
37792;BME280;29527;55.766;37.570;2023-03-31T00:27:18;99190.19;;;1.84;60.29
37792;BME280;29527;55.766;37.570;2023-03-31T00:29:43;99188.41;;;1.85;60.53
37792;BME280;29527;55.766;37.570;2023-03-31T00:32:09;99180.03;;;1.77;60.41
37792;BME280;29527;55.766;37.570;2023-03-31T00:34:36;99184.47;;;1.76;60.43
37792;BME280;29527;55.766;37.570;2023-03-31T00:37:03;99180.47;;;1.69;60.79
37792;BME280;29527;55.766;37.570;2023-03-31T00:39:28;99146.56;;;1.45;60.49
37792;BME280;29527;55.766;37.570;2023-03-31T00:41:58;99178.31;;;1.60;60.82
37792;BME280;29527;55.766;37.570;2023-03-31T00:44:24;99183.53;;;1.61;61.18
37792;BME280;29527;55.766;37.570;2023-03-31T00:49:30;99172.97;;;1.61;61.00
37792;BME280;29527;55.766;37.570;2023-03-31T00:52:05;99172.09;;;1.61;60.89
37792;BME280;29527;55.766;37.570;2023-03-31T00:54:32;99168.94;;;1.54;60.89
37792;BME280;29527;55.766;37.570;2023-03-31T00:57:00;99174.13;;;1.55;60.99
37792;BME280;29527;55.766;37.570;2023-03-31T00:59:29;99175.50;;;1.63;60.82
37792;BME280;29527;55.766;37.570;2023-03-31T01:01:59;99171.94;;;1.64;60.76
37792;BME280;29527;55.766;37.570;2023-03-31T01:04:31;99164.88;;;1.64;60.64
37792;BME280;29527;55.766;37.570;2023-03-31T01:07:04;99169.81;;;1.70;60.75
37792;BME280;29527;55.766;37.570;2023-03-31T01:09:33;99159.44;;;1.67;60.69
37792;BME280;29527;55.766;37.570;2023-03-31T01:12:02;99125.13;;;1.51;60.35
37792;BME280;29527;55.766;37.570;2023-03-31T01:14:29;99145.22;;;1.70;60.40
37792;BME280;29527;55.766;37.570;2023-03-31T01:16:55;99155.78;;;1.70;60.42
37792;BME280;29527;55.766;37.570;2023-03-31T01:27:48;99129.28;;;1.55;61.17
37792;BME280;29527;55.766;37.570;2023-03-31T01:41:41;99128.75;;;1.33;61.21
37792;BME280;29527;55.766;37.570;2023-03-31T01:44:36;99126.44;;;1.26;61.26
37792;BME280;29527;55.766;37.570;2023-03-31T01:47:14;99127.25;;;1.11;61.82
37792;BME280;29527;55.766;37.570;2023-03-31T01:49:54;99125.88;;;1.04;61.88
37792;BME280;29527;55.766;37.570;2023-03-31T01:52:30;99131.00;;;0.89;62.48
37792;BME280;29527;55.766;37.570;2023-03-31T01:55:08;99123.75;;;0.77;62.67
37792;BME280;29527;55.766;37.570;2023-03-31T01:57:49;99126.66;;;0.88;62.45
37792;BME280;29527;55.766;37.570;2023-03-31T02:00:22;99119.69;;;0.87;62.78
37792;BME280;29527;55.766;37.570;2023-03-31T02:02:56;99122.09;;;0.92;62.62
37792;BME280;29527;55.766;37.570;2023-03-31T02:05:26;99123.81;;;0.93;62.90
37792;BME280;29527;55.766;37.570;2023-03-31T02:07:58;99115.97;;;0.91;62.67
37792;BME280;29527;55.766;37.570;2023-03-31T02:10:29;99114.59;;;0.84;62.58
37792;BME280;29527;55.766;37.570;2023-03-31T02:12:58;99105.38;;;0.75;62.67
37792;BME280;29527;55.766;37.570;2023-03-31T02:15:27;99111.97;;;0.66;63.54
37792;BME280;29527;55.766;37.570;2023-03-31T02:17:58;99107.00;;;0.60;63.54
37792;BME280;29527;55.766;37.570;2023-03-31T02:20:26;99110.13;;;0.51;63.61
37792;BME280;29527;55.766;37.570;2023-03-31T02:22:55;99114.63;;;0.49;64.06
37792;BME280;29527;55.766;37.570;2023-03-31T02:25:23;99122.66;;;0.46;64.08
37792;BME280;29527;55.766;37.570;2023-03-31T02:27:57;99106.19;;;0.42;63.94
37792;BME280;29527;55.766;37.570;2023-03-31T02:30:30;99122.19;;;0.37;64.04
37792;BME280;29527;55.766;37.570;2023-03-31T02:33:00;99109.66;;;0.25;63.63
37792;BME280;29527;55.766;37.570;2023-03-31T02:35:28;99113.50;;;0.18;63.84
37792;BME280;29527;55.766;37.570;2023-03-31T02:37:54;99130.38;;;0.13;63.67
37792;BME280;29527;55.766;37.570;2023-03-31T02:40:23;99119.66;;;-0.01;63.92
37792;BME280;29527;55.766;37.570;2023-03-31T02:42:52;99117.88;;;-0.01;64.21
37792;BME280;29527;55.766;37.570;2023-03-31T02:48:03;99122.84;;;-0.12;64.42
37792;BME280;29527;55.766;37.570;2023-03-31T02:50:35;99112.53;;;-0.17;65.24
37792;BME280;29527;55.766;37.570;2023-03-31T02:53:59;99122.94;;;-0.15;65.39
37792;BME280;29527;55.766;37.570;2023-03-31T03:07:06;99127.00;;;-0.27;65.09
37792;BME280;29527;55.766;37.570;2023-03-31T03:12:47;99117.47;;;-0.10;65.15
37792;BME280;29527;55.766;37.570;2023-03-31T03:15:43;99115.78;;;-0.11;64.47
37792;BME280;29527;55.766;37.570;2023-03-31T03:18:10;99124.44;;;-0.09;64.54
37792;BME280;29527;55.766;37.570;2023-03-31T03:20:39;99101.47;;;-0.42;65.54
37792;BME280;29527;55.766;37.570;2023-03-31T03:23:06;99125.41;;;-0.30;65.76
37792;BME280;29527;55.766;37.570;2023-03-31T03:25:32;99102.91;;;-0.18;65.77
37792;BME280;29527;55.766;37.570;2023-03-31T03:27:58;99128.34;;;0.01;65.35
37792;BME280;29527;55.766;37.570;2023-03-31T03:30:24;99108.31;;;0.16;65.14
37792;BME280;29527;55.766;37.570;2023-03-31T03:32:49;99092.94;;;0.26;64.66
37792;BME280;29527;55.766;37.570;2023-03-31T03:35:15;99092.22;;;0.40;64.32
37792;BME280;29527;55.766;37.570;2023-03-31T03:37:40;99096.03;;;0.52;64.45
37792;BME280;29527;55.766;37.570;2023-03-31T03:40:07;99090.88;;;0.66;63.88
37792;BME280;29527;55.766;37.570;2023-03-31T03:42:34;99092.28;;;0.74;63.58
37792;BME280;29527;55.766;37.570;2023-03-31T03:45:00;99083.81;;;0.84;63.12
37792;BME280;29527;55.766;37.570;2023-03-31T03:47:26;99080.09;;;0.89;63.02
37792;BME280;29527;55.766;37.570;2023-03-31T03:49:52;99090.31;;;0.95;62.84
37792;BME280;29527;55.766;37.570;2023-03-31T03:52:17;99090.22;;;0.96;63.12
37792;BME280;29527;55.766;37.570;2023-03-31T03:54:42;99075.03;;;1.02;62.63
37792;BME280;29527;55.766;37.570;2023-03-31T03:57:08;99072.28;;;1.03;62.41
37792;BME280;29527;55.766;37.570;2023-03-31T03:59:33;99065.06;;;1.07;62.38
37792;BME280;29527;55.766;37.570;2023-03-31T04:01:59;99057.06;;;1.08;62.41
37792;BME280;29527;55.766;37.570;2023-03-31T04:04:24;99042.69;;;0.98;62.36
37792;BME280;29527;55.766;37.570;2023-03-31T04:06:50;99050.72;;;1.12;62.39
37792;BME280;29527;55.766;37.570;2023-03-31T04:09:15;99050.38;;;1.19;62.42
37792;BME280;29527;55.766;37.570;2023-03-31T04:11:41;99041.47;;;1.21;62.06
37792;BME280;29527;55.766;37.570;2023-03-31T04:14:06;99020.09;;;1.10;62.30
37792;BME280;29527;55.766;37.570;2023-03-31T04:16:32;98991.44;;;1.04;62.02
37792;BME280;29527;55.766;37.570;2023-03-31T04:18:58;99036.25;;;1.36;62.48
37792;BME280;29527;55.766;37.570;2023-03-31T04:21:28;99042.22;;;1.39;62.11
37792;BME280;29527;55.766;37.570;2023-03-31T04:23:55;99027.00;;;1.28;62.32
37792;BME280;29527;55.766;37.570;2023-03-31T04:26:27;99035.09;;;1.41;62.28
37792;BME280;29527;55.766;37.570;2023-03-31T04:29:04;99037.19;;;1.35;61.83
37792;BME280;29527;55.766;37.570;2023-03-31T04:31:30;99050.16;;;1.39;62.14
37792;BME280;29527;55.766;37.570;2023-03-31T04:33:56;99039.94;;;1.33;62.12
37792;BME280;29527;55.766;37.570;2023-03-31T04:36:29;99044.59;;;1.44;61.89
37792;BME280;29527;55.766;37.570;2023-03-31T04:38:55;99033.63;;;1.52;61.55
37792;BME280;29527;55.766;37.570;2023-03-31T04:41:26;99031.13;;;1.65;61.98
37792;BME280;29527;55.766;37.570;2023-03-31T04:43:52;99024.59;;;1.72;61.58
37792;BME280;29527;55.766;37.570;2023-03-31T04:46:19;99033.84;;;1.79;61.21
37792;BME280;29527;55.766;37.570;2023-03-31T04:48:45;99026.59;;;1.99;60.70
37792;BME280;29527;55.766;37.570;2023-03-31T04:51:10;99003.78;;;2.12;60.16
37792;BME280;29527;55.766;37.570;2023-03-31T04:53:39;99007.91;;;2.33;59.42
37792;BME280;29527;55.766;37.570;2023-03-31T04:56:05;99019.22;;;2.35;59.02
37792;BME280;29527;55.766;37.570;2023-03-31T04:58:31;99017.22;;;2.24;59.59
37792;BME280;29527;55.766;37.570;2023-03-31T05:00:57;99013.91;;;2.20;59.84
37792;BME280;29527;55.766;37.570;2023-03-31T05:03:22;99030.78;;;2.18;59.86
37792;BME280;29527;55.766;37.570;2023-03-31T05:05:48;99034.63;;;2.57;58.09
37792;BME280;29527;55.766;37.570;2023-03-31T05:08:13;99037.84;;;2.17;59.25
37792;BME280;29527;55.766;37.570;2023-03-31T05:10:39;99035.00;;;1.90;60.03
37792;BME280;29527;55.766;37.570;2023-03-31T05:13:04;99025.75;;;1.82;60.02
37792;BME280;29527;55.766;37.570;2023-03-31T05:15:30;99028.97;;;1.57;61.86
37792;BME280;29527;55.766;37.570;2023-03-31T05:17:57;99031.59;;;1.57;62.21
37792;BME280;29527;55.766;37.570;2023-03-31T05:20:23;99041.69;;;1.65;61.65
37792;BME280;29527;55.766;37.570;2023-03-31T05:22:48;99032.22;;;1.77;62.37
37792;BME280;29527;55.766;37.570;2023-03-31T05:25:14;99039.34;;;1.91;61.56
37792;BME280;29527;55.766;37.570;2023-03-31T05:27:43;99030.75;;;2.03;61.36
37792;BME280;29527;55.766;37.570;2023-03-31T05:30:10;99003.47;;;2.03;60.58
37792;BME280;29527;55.766;37.570;2023-03-31T05:32:35;99037.16;;;2.29;59.87
37792;BME280;29527;55.766;37.570;2023-03-31T05:35:01;99033.84;;;2.40;59.24
37792;BME280;29527;55.766;37.570;2023-03-31T05:37:27;99030.94;;;2.14;60.10
37792;BME280;29527;55.766;37.570;2023-03-31T05:39:52;99027.56;;;1.82;61.81
37792;BME280;29527;55.766;37.570;2023-03-31T05:42:18;99017.66;;;1.85;62.67
37792;BME280;29527;55.766;37.570;2023-03-31T05:44:44;99012.34;;;2.01;61.62
37792;BME280;29527;55.766;37.570;2023-03-31T05:47:10;99022.69;;;2.21;61.46
37792;BME280;29527;55.766;37.570;2023-03-31T05:49:35;99026.22;;;2.36;61.25
37792;BME280;29527;55.766;37.570;2023-03-31T05:52:03;99027.75;;;2.69;60.67
37792;BME280;29527;55.766;37.570;2023-03-31T05:54:29;99012.91;;;3.10;59.67
37792;BME280;29527;55.766;37.570;2023-03-31T05:56:54;98994.28;;;3.53;58.46
37792;BME280;29527;55.766;37.570;2023-03-31T05:59:19;98994.84;;;3.86;57.32
37792;BME280;29527;55.766;37.570;2023-03-31T06:01:45;98989.91;;;4.07;56.15
37792;BME280;29527;55.766;37.570;2023-03-31T06:04:11;98987.81;;;4.12;55.84
37792;BME280;29527;55.766;37.570;2023-03-31T06:06:36;98989.16;;;4.05;55.94
37792;BME280;29527;55.766;37.570;2023-03-31T06:09:03;98990.00;;;3.93;56.43
37792;BME280;29527;55.766;37.570;2023-03-31T06:11:29;98983.84;;;3.92;55.98
37792;BME280;29527;55.766;37.570;2023-03-31T06:13:55;98949.69;;;3.75;56.40
37792;BME280;29527;55.766;37.570;2023-03-31T06:16:21;98992.00;;;4.02;56.17
37792;BME280;29527;55.766;37.570;2023-03-31T06:18:46;98974.84;;;3.95;56.11
37792;BME280;29527;55.766;37.570;2023-03-31T06:21:14;98990.53;;;3.98;56.27
37792;BME280;29527;55.766;37.570;2023-03-31T06:23:43;98990.63;;;3.96;55.88
37792;BME280;29527;55.766;37.570;2023-03-31T06:26:15;98993.72;;;4.03;55.55
37792;BME280;29527;55.766;37.570;2023-03-31T06:28:41;98995.72;;;3.99;56.42
37792;BME280;29527;55.766;37.570;2023-03-31T06:31:15;99002.66;;;4.28;56.32
37792;BME280;29527;55.766;37.570;2023-03-31T06:33:42;99006.19;;;4.41;55.34
37792;BME280;29527;55.766;37.570;2023-03-31T06:36:08;99001.41;;;4.47;54.87
37792;BME280;29527;55.766;37.570;2023-03-31T06:38:34;98974.97;;;4.06;55.93
37792;BME280;29527;55.766;37.570;2023-03-31T06:41:01;98990.56;;;4.11;55.43
37792;BME280;29527;55.766;37.570;2023-03-31T06:43:27;98984.94;;;4.02;56.23
37792;BME280;29527;55.766;37.570;2023-03-31T06:45:53;98995.50;;;3.90;56.25
37792;BME280;29527;55.766;37.570;2023-03-31T06:48:18;98984.53;;;3.81;56.44
37792;BME280;29527;55.766;37.570;2023-03-31T06:50:44;98979.25;;;3.81;56.59
37792;BME280;29527;55.766;37.570;2023-03-31T06:53:10;98976.50;;;3.83;56.35
37792;BME280;29527;55.766;37.570;2023-03-31T06:55:36;98975.25;;;3.88;56.27
37792;BME280;29527;55.766;37.570;2023-03-31T06:58:03;98985.03;;;4.01;55.50
37792;BME280;29527;55.766;37.570;2023-03-31T07:00:28;98988.00;;;4.09;55.65
37792;BME280;29527;55.766;37.570;2023-03-31T07:02:54;98982.16;;;4.04;55.43
37792;BME280;29527;55.766;37.570;2023-03-31T07:05:20;98990.03;;;4.06;55.90
37792;BME280;29527;55.766;37.570;2023-03-31T07:07:55;98988.19;;;4.06;56.02
37792;BME280;29527;55.766;37.570;2023-03-31T07:10:22;98986.50;;;4.05;55.86
37792;BME280;29527;55.766;37.570;2023-03-31T07:12:48;98978.47;;;4.07;55.62
37792;BME280;29527;55.766;37.570;2023-03-31T07:15:14;98977.00;;;4.15;56.00
37792;BME280;29527;55.766;37.570;2023-03-31T07:17:40;98972.53;;;4.29;55.54
37792;BME280;29527;55.766;37.570;2023-03-31T07:20:10;98975.84;;;4.45;55.69
37792;BME280;29527;55.766;37.570;2023-03-31T07:22:46;98972.78;;;4.52;54.68
37792;BME280;29527;55.766;37.570;2023-03-31T07:25:14;98966.63;;;4.51;55.15
37792;BME280;29527;55.766;37.570;2023-03-31T07:27:40;98973.19;;;4.45;54.71
37792;BME280;29527;55.766;37.570;2023-03-31T07:30:07;98970.03;;;4.40;55.07
37792;BME280;29527;55.766;37.570;2023-03-31T07:32:33;98961.72;;;4.32;55.18
37792;BME280;29527;55.766;37.570;2023-03-31T07:34:59;98974.03;;;4.33;55.91
37792;BME280;29527;55.766;37.570;2023-03-31T07:37:25;98972.78;;;4.39;55.09
37792;BME280;29527;55.766;37.570;2023-03-31T07:39:50;98966.19;;;4.44;55.01
37792;BME280;29527;55.766;37.570;2023-03-31T07:42:16;98964.50;;;4.43;54.66
37792;BME280;29527;55.766;37.570;2023-03-31T07:44:41;98970.63;;;4.31;55.68
37792;BME280;29527;55.766;37.570;2023-03-31T07:47:07;98966.63;;;4.25;55.66
37792;BME280;29527;55.766;37.570;2023-03-31T07:49:33;98964.50;;;4.30;55.13
37792;BME280;29527;55.766;37.570;2023-03-31T07:51:59;98968.09;;;4.29;55.44
37792;BME280;29527;55.766;37.570;2023-03-31T07:54:24;98972.34;;;4.32;55.67
37792;BME280;29527;55.766;37.570;2023-03-31T07:56:50;98968.84;;;4.44;55.60
37792;BME280;29527;55.766;37.570;2023-03-31T07:59:16;98975.75;;;4.60;55.78
37792;BME280;29527;55.766;37.570;2023-03-31T08:01:42;98971.06;;;4.64;54.58
37792;BME280;29527;55.766;37.570;2023-03-31T08:04:08;98961.00;;;4.56;55.00
37792;BME280;29527;55.766;37.570;2023-03-31T08:06:34;98956.66;;;4.55;54.81
37792;BME280;29527;55.766;37.570;2023-03-31T08:08:59;98959.41;;;4.53;54.74
37792;BME280;29527;55.766;37.570;2023-03-31T08:11:25;98923.69;;;4.33;55.18
37792;BME280;29527;55.766;37.570;2023-03-31T08:13:51;98948.06;;;4.51;54.42
37792;BME280;29527;55.766;37.570;2023-03-31T08:16:16;98933.22;;;4.62;54.81
37792;BME280;29527;55.766;37.570;2023-03-31T08:18:42;98935.28;;;4.95;54.59
37792;BME280;29527;55.766;37.570;2023-03-31T08:21:08;98941.78;;;5.15;53.97
37792;BME280;29527;55.766;37.570;2023-03-31T08:23:36;98942.69;;;5.27;53.88
37792;BME280;29527;55.766;37.570;2023-03-31T08:26:14;98934.81;;;5.39;52.86
37792;BME280;29527;55.766;37.570;2023-03-31T08:28:39;98930.50;;;5.49;52.89
37792;BME280;29527;55.766;37.570;2023-03-31T08:31:06;98939.19;;;5.51;52.64
37792;BME280;29527;55.766;37.570;2023-03-31T08:33:33;98918.44;;;5.45;52.55
37792;BME280;29527;55.766;37.570;2023-03-31T08:36:03;98926.47;;;5.56;52.56
37792;BME280;29527;55.766;37.570;2023-03-31T08:38:29;98921.34;;;5.53;52.93
37792;BME280;29527;55.766;37.570;2023-03-31T08:41:02;98912.00;;;5.60;52.70
37792;BME280;29527;55.766;37.570;2023-03-31T08:43:32;98915.59;;;5.59;52.65
37792;BME280;29527;55.766;37.570;2023-03-31T08:46:00;98900.63;;;5.58;52.73
37792;BME280;29527;55.766;37.570;2023-03-31T08:48:28;98895.00;;;5.74;52.27
37792;BME280;29527;55.766;37.570;2023-03-31T08:51:02;98897.59;;;5.87;51.54
37792;BME280;29527;55.766;37.570;2023-03-31T08:53:38;98888.25;;;6.17;51.49
37792;BME280;29527;55.766;37.570;2023-03-31T08:56:12;98883.19;;;6.37;50.83
37792;BME280;29527;55.766;37.570;2023-03-31T09:04:24;98892.22;;;6.92;50.01
37792;BME280;29527;55.766;37.570;2023-03-31T09:11:57;98885.97;;;6.36;50.45
37792;BME280;29527;55.766;37.570;2023-03-31T09:17:17;98873.63;;;6.23;50.51
37792;BME280;29527;55.766;37.570;2023-03-31T09:19:51;98886.91;;;6.12;50.63
37792;BME280;29527;55.766;37.570;2023-03-31T09:22:29;98877.53;;;5.95;50.61
37792;BME280;29527;55.766;37.570;2023-03-31T09:25:15;98871.84;;;5.88;51.41
37792;BME280;29527;55.766;37.570;2023-03-31T09:27:43;98868.84;;;5.81;51.53
37792;BME280;29527;55.766;37.570;2023-03-31T09:30:15;98862.66;;;5.81;51.88
37792;BME280;29527;55.766;37.570;2023-03-31T09:32:42;98857.84;;;5.86;51.78
37792;BME280;29527;55.766;37.570;2023-03-31T09:35:18;98832.84;;;5.88;51.39
37792;BME280;29527;55.766;37.570;2023-03-31T09:37:46;98843.25;;;5.92;51.47
37792;BME280;29527;55.766;37.570;2023-03-31T09:40:17;98840.59;;;5.92;51.39
37792;BME280;29527;55.766;37.570;2023-03-31T09:42:45;98840.25;;;5.96;51.81
37792;BME280;29527;55.766;37.570;2023-03-31T09:45:16;98829.06;;;6.04;51.28
37792;BME280;29527;55.766;37.570;2023-03-31T09:47:44;98823.94;;;6.01;51.14
37792;BME280;29527;55.766;37.570;2023-03-31T09:50:11;98814.50;;;5.97;51.24
37792;BME280;29527;55.766;37.570;2023-03-31T09:52:40;98802.31;;;5.94;51.49
37792;BME280;29527;55.766;37.570;2023-03-31T09:55:18;98805.63;;;6.09;51.54
37792;BME280;29527;55.766;37.570;2023-03-31T09:57:44;98804.59;;;5.99;50.91
37792;BME280;29527;55.766;37.570;2023-03-31T10:02:50;98806.81;;;6.16;51.29
37792;BME280;29527;55.766;37.570;2023-03-31T10:05:48;98803.22;;;6.29;51.11
37792;BME280;29527;55.766;37.570;2023-03-31T10:08:39;98796.53;;;6.35;50.73
37792;BME280;29527;55.766;37.570;2023-03-31T10:11:09;98803.69;;;6.34;50.37
37792;BME280;29527;55.766;37.570;2023-03-31T10:16:12;98802.97;;;6.32;50.52
37792;BME280;29527;55.766;37.570;2023-03-31T10:18:40;98806.09;;;6.37;50.53
37792;BME280;29527;55.766;37.570;2023-03-31T10:21:17;98797.38;;;6.46;50.69
37792;BME280;29527;55.766;37.570;2023-03-31T10:23:48;98798.09;;;6.49;50.38
37792;BME280;29527;55.766;37.570;2023-03-31T10:26:25;98801.56;;;6.60;50.42
37792;BME280;29527;55.766;37.570;2023-03-31T10:28:52;98789.88;;;6.52;49.91
37792;BME280;29527;55.766;37.570;2023-03-31T10:31:26;98795.69;;;6.57;49.76
37792;BME280;29527;55.766;37.570;2023-03-31T10:33:58;98786.25;;;6.41;50.42
37792;BME280;29527;55.766;37.570;2023-03-31T10:36:28;98778.78;;;6.35;51.03
37792;BME280;29527;55.766;37.570;2023-03-31T10:38:54;98778.06;;;6.22;50.90
37792;BME280;29527;55.766;37.570;2023-03-31T10:41:26;98777.59;;;6.16;50.98
37792;BME280;29527;55.766;37.570;2023-03-31T10:43:58;98762.59;;;6.15;50.80
37792;BME280;29527;55.766;37.570;2023-03-31T10:46:47;98746.16;;;5.99;51.98
37792;BME280;29527;55.766;37.570;2023-03-31T10:49:15;98736.38;;;5.99;52.04
37792;BME280;29527;55.766;37.570;2023-03-31T10:51:54;98738.47;;;6.07;51.67
37792;BME280;29527;55.766;37.570;2023-03-31T10:54:21;98744.13;;;6.14;51.67
37792;BME280;29527;55.766;37.570;2023-03-31T10:56:49;98716.81;;;6.00;51.44
37792;BME280;29527;55.766;37.570;2023-03-31T11:04:32;98750.19;;;6.16;51.26
37792;BME280;29527;55.766;37.570;2023-03-31T11:07:27;98751.34;;;6.00;52.24
37792;BME280;29527;55.766;37.570;2023-03-31T11:10:07;98746.75;;;5.80;52.68
37792;BME280;29527;55.766;37.570;2023-03-31T11:12:48;98729.38;;;5.75;52.62
37792;BME280;29527;55.766;37.570;2023-03-31T11:18:28;98730.69;;;5.70;53.43
37792;BME280;29527;55.766;37.570;2023-03-31T11:21:09;98741.31;;;5.58;54.29
37792;BME280;29527;55.766;37.570;2023-03-31T11:29:43;98733.94;;;5.62;54.41
37792;BME280;29527;55.766;37.570;2023-03-31T11:37:49;98712.31;;;5.44;54.36
37792;BME280;29527;55.766;37.570;2023-03-31T11:43:31;98686.66;;;4.97;55.40
37792;BME280;29527;55.766;37.570;2023-03-31T11:46:12;98715.47;;;5.38;55.30
37792;BME280;29527;55.766;37.570;2023-03-31T11:48:40;98711.31;;;5.11;55.64
37792;BME280;29527;55.766;37.570;2023-03-31T11:51:16;98706.72;;;5.13;55.70
37792;BME280;29527;55.766;37.570;2023-03-31T11:53:44;98703.59;;;5.08;56.34
37792;BME280;29527;55.766;37.570;2023-03-31T11:56:11;98702.22;;;5.02;56.92
37792;BME280;29527;55.766;37.570;2023-03-31T11:58:44;98702.00;;;5.05;56.52
37792;BME280;29527;55.766;37.570;2023-03-31T12:06:43;98695.63;;;5.19;56.80
37792;BME280;29527;55.766;37.570;2023-03-31T12:09:32;98689.84;;;5.25;57.18
37792;BME280;29527;55.766;37.570;2023-03-31T12:12:21;98681.78;;;5.27;56.80
37792;BME280;29527;55.766;37.570;2023-03-31T12:14:54;98688.88;;;5.15;57.30
37792;BME280;29527;55.766;37.570;2023-03-31T12:17:26;98686.22;;;5.15;57.63
37792;BME280;29527;55.766;37.570;2023-03-31T12:20:01;98678.28;;;5.26;57.66
37792;BME280;29527;55.766;37.570;2023-03-31T12:22:46;98669.38;;;5.39;57.17
37792;BME280;29527;55.766;37.570;2023-03-31T12:25:19;98668.41;;;5.51;56.21
37792;BME280;29527;55.766;37.570;2023-03-31T12:27:50;98665.25;;;5.23;57.08
37792;BME280;29527;55.766;37.570;2023-03-31T12:41:42;98665.19;;;5.00;57.71
37792;BME280;29527;55.766;37.570;2023-03-31T12:47:12;98633.84;;;4.94;57.26
37792;BME280;29527;55.766;37.570;2023-03-31T13:01:14;98651.19;;;4.87;58.17
37792;BME280;29527;55.766;37.570;2023-03-31T13:04:16;98647.78;;;4.73;59.26
37792;BME280;29527;55.766;37.570;2023-03-31T13:06:49;98636.69;;;4.80;59.06
37792;BME280;29527;55.766;37.570;2023-03-31T13:11:44;98632.16;;;4.93;58.95
37792;BME280;29527;55.766;37.570;2023-03-31T13:14:26;98638.91;;;4.97;58.95
37792;BME280;29527;55.766;37.570;2023-03-31T13:17:11;98640.38;;;5.13;58.82
37792;BME280;29527;55.766;37.570;2023-03-31T13:19:40;98614.31;;;4.95;58.25
37792;BME280;29527;55.766;37.570;2023-03-31T13:22:06;98639.91;;;5.08;58.39
37792;BME280;29527;55.766;37.570;2023-03-31T13:24:33;98637.94;;;4.87;59.82
37792;BME280;29527;55.766;37.570;2023-03-31T13:27:32;98627.91;;;4.91;59.92
37792;BME280;29527;55.766;37.570;2023-03-31T13:29:58;98636.44;;;4.71;60.22
37792;BME280;29527;55.766;37.570;2023-03-31T13:32:27;98631.22;;;4.70;60.83
37792;BME280;29527;55.766;37.570;2023-03-31T13:35:03;98634.25;;;4.65;61.39
37792;BME280;29527;55.766;37.570;2023-03-31T13:40:39;98624.47;;;4.54;61.52
37792;BME280;29527;55.766;37.570;2023-03-31T13:51:31;98613.00;;;4.54;62.54
37792;BME280;29527;55.766;37.570;2023-03-31T13:59:43;98607.47;;;4.57;62.05
37792;BME280;29527;55.766;37.570;2023-03-31T14:08:07;98606.41;;;4.59;62.57
37792;BME280;29527;55.766;37.570;2023-03-31T14:10:38;98599.63;;;4.55;62.67
37792;BME280;29527;55.766;37.570;2023-03-31T14:13:16;98597.63;;;4.59;63.02
37792;BME280;29527;55.766;37.570;2023-03-31T14:15:52;98565.59;;;4.38;62.91
37792;BME280;29527;55.766;37.570;2023-03-31T14:18:27;98605.41;;;4.49;63.04
37792;BME280;29527;55.766;37.570;2023-03-31T14:21:16;98600.63;;;4.66;62.36
37792;BME280;29527;55.766;37.570;2023-03-31T14:37:15;98580.19;;;4.43;64.00
37792;BME280;29527;55.766;37.570;2023-03-31T14:39:48;98547.47;;;4.20;63.88
37792;BME280;29527;55.766;37.570;2023-03-31T14:42:18;98567.09;;;4.53;63.38
37792;BME280;29527;55.766;37.570;2023-03-31T14:44:44;98575.72;;;4.33;64.67
37792;BME280;29527;55.766;37.570;2023-03-31T14:47:15;98559.63;;;4.11;65.65
37792;BME280;29527;55.766;37.570;2023-03-31T14:49:44;98588.47;;;4.27;64.54
37792;BME280;29527;55.766;37.570;2023-03-31T14:52:16;98576.00;;;4.16;65.71
37792;BME280;29527;55.766;37.570;2023-03-31T14:54:46;98587.16;;;4.09;66.38
37792;BME280;29527;55.766;37.570;2023-03-31T14:57:18;98549.91;;;3.99;65.90
37792;BME280;29527;55.766;37.570;2023-03-31T14:59:47;98579.88;;;4.24;65.12
37792;BME280;29527;55.766;37.570;2023-03-31T15:02:17;98575.00;;;4.06;66.48
37792;BME280;29527;55.766;37.570;2023-03-31T15:04:46;98579.91;;;3.99;67.15
37792;BME280;29527;55.766;37.570;2023-03-31T15:07:14;98571.44;;;3.94;67.53
37792;BME280;29527;55.766;37.570;2023-03-31T15:09:44;98574.25;;;4.04;67.42
37792;BME280;29527;55.766;37.570;2023-03-31T15:12:14;98578.25;;;4.10;67.84
37792;BME280;29527;55.766;37.570;2023-03-31T15:14:51;98579.16;;;4.22;67.60
37792;BME280;29527;55.766;37.570;2023-03-31T15:17:24;98579.25;;;4.20;67.09
37792;BME280;29527;55.766;37.570;2023-03-31T15:19:55;98579.78;;;4.25;66.88
37792;BME280;29527;55.766;37.570;2023-03-31T15:22:24;98573.84;;;4.22;67.22
37792;BME280;29527;55.766;37.570;2023-03-31T15:24:51;98582.78;;;4.21;67.03
37792;BME280;29527;55.766;37.570;2023-03-31T15:27:36;98582.31;;;4.27;67.74
37792;BME280;29527;55.766;37.570;2023-03-31T15:30:11;98580.63;;;4.26;67.19
37792;BME280;29527;55.766;37.570;2023-03-31T15:32:38;98583.41;;;4.24;66.95
37792;BME280;29527;55.766;37.570;2023-03-31T15:35:05;98575.78;;;4.20;67.70
37792;BME280;29527;55.766;37.570;2023-03-31T15:37:38;98578.19;;;4.23;67.82
37792;BME280;29527;55.766;37.570;2023-03-31T15:40:14;98582.53;;;4.24;67.92
37792;BME280;29527;55.766;37.570;2023-03-31T15:42:42;98573.84;;;4.22;67.99
37792;BME280;29527;55.766;37.570;2023-03-31T15:47:48;98579.94;;;4.35;68.73